Time;durP1;ratioP1;P1;durP2;ratioP2;P2;SDS_P1;SDS_P2;PMS_P1;PMS_P2;Temp;Humidity;BMP_temperature;BMP_pressure;BME280_temperature;BME280_humidity;BME280_pressure;Samples;Min_cycle;Max_cycle;Signal;HPM_P1;HPM_P2
2023/12/14 00:01:33;;;;;;;4.03;2.13;;;10.50;99.90;;;;;;7381923;19;20048;-75
2023/12/14 00:04:02;;;;;;;6.43;2.13;;;10.80;99.90;;;;;;7383592;19;20018;-76
2023/12/14 00:06:33;;;;;;;4.43;1.58;;;10.80;99.90;;;;;;7406570;19;20015;-76
2023/12/14 00:09:02;;;;;;;2.88;1.95;;;10.80;99.90;;;;;;7390420;19;20219;-75
2023/12/14 00:11:31;;;;;;;6.43;1.95;;;10.70;99.90;;;;;;7390600;19;20041;-75
2023/12/14 00:13:59;;;;;;;4.90;1.65;;;10.60;99.90;;;;;;7388168;19;20006;-74
2023/12/14 00:16:30;;;;;;;3.42;1.83;;;10.60;99.90;;;;;;7383821;19;20011;-75
2023/12/14 00:18:56;;;;;;;9.98;1.60;;;10.80;99.90;;;;;;7384506;19;20030;-75
2023/12/14 00:21:25;;;;;;;4.38;1.27;;;10.80;99.90;;;;;;7404055;19;20234;-75
2023/12/14 00:23:56;;;;;;;3.55;1.67;;;10.80;99.90;;;;;;7383338;19;20323;-75
2023/12/14 00:26:25;;;;;;;6.57;1.88;;;10.60;99.90;;;;;;7381194;19;20048;-75
2023/12/14 00:28:53;;;;;;;4.35;2.00;;;10.60;99.90;;;;;;7383010;19;20378;-75
2023/12/14 00:31:22;;;;;;;12.15;2.00;;;10.60;99.90;;;;;;7381220;19;20259;-75
2023/12/14 00:33:51;;;;;;;3.63;1.65;;;10.50;99.90;;;;;;7403983;19;20089;-74
2023/12/14 00:36:23;;;;;;;10.93;1.75;;;10.50;99.90;;;;;;7381977;19;20426;-75
2023/12/14 00:38:51;;;;;;;5.13;2.10;;;10.50;99.90;;;;;;7381684;19;20075;-75
2023/12/14 00:41:23;;;;;;;4.78;1.80;;;10.50;99.90;;;;;;7381829;19;20015;-75
2023/12/14 00:43:51;;;;;;;7.88;2.00;;;10.50;99.90;;;;;;7382488;19;20002;-74
2023/12/14 00:46:20;;;;;;;7.32;2.00;;;10.60;99.90;;;;;;7382127;19;20075;-74
2023/12/14 00:48:48;;;;;;;4.57;1.88;;;10.80;99.90;;;;;;7403732;19;20027;-75
2023/12/14 00:51:17;;;;;;;9.07;1.90;;;10.90;99.90;;;;;;7380846;19;20023;-76
2023/12/14 00:53:46;;;;;;;8.60;1.50;;;10.80;99.90;;;;;;7381463;19;20074;-75
2023/12/14 00:56:14;;;;;;;3.58;1.60;;;10.70;99.90;;;;;;7381593;19;20232;-75
2023/12/14 00:58:46;;;;;;;8.40;1.88;;;10.70;99.90;;;;;;7381024;19;20038;-75
2023/12/14 01:01:14;;;;;;;4.97;1.98;;;10.70;99.90;;;;;;7380813;19;20070;-74
2023/12/14 01:03:43;;;;;;;10.32;1.83;;;10.50;99.90;;;;;;7405922;19;20010;-75
2023/12/14 01:06:12;;;;;;;8.07;1.35;;;10.40;99.90;;;;;;7380231;19;20304;-75
2023/12/14 01:08:40;;;;;;;11.52;1.80;;;10.30;99.90;;;;;;7381161;19;20006;-75
2023/12/14 01:11:10;;;;;;;8.10;1.58;;;10.40;99.90;;;;;;7381613;19;20024;-74
2023/12/14 01:13:40;;;;;;;1.88;1.33;;;10.60;99.90;;;;;;7380931;19;20093;-75
2023/12/14 01:16:11;;;;;;;7.90;1.63;;;10.70;99.90;;;;;;7381423;19;20006;-75
2023/12/14 01:18:40;;;;;;;7.68;1.20;;;10.70;99.90;;;;;;7403854;19;20003;-75
2023/12/14 01:21:09;;;;;;;11.05;1.88;;;10.50;99.90;;;;;;7383154;19;20006;-75
2023/12/14 01:23:37;;;;;;;6.57;1.55;;;10.70;99.90;;;;;;7380540;19;20016;-74
2023/12/14 01:26:06;;;;;;;5.35;1.33;;;10.70;99.90;;;;;;7380264;19;20433;-75
2023/12/14 01:28:35;;;;;;;6.13;1.20;;;10.70;99.90;;;;;;7380883;19;20006;-75
2023/12/14 01:31:04;;;;;;;4.75;1.38;;;10.70;99.90;;;;;;7380156;19;20015;-74
2023/12/14 01:33:35;;;;;;;2.63;1.25;;;10.60;99.90;;;;;;7401878;19;20250;-75
2023/12/14 01:36:06;;;;;;;7.50;2.13;;;10.60;99.90;;;;;;7379925;19;20063;-75
2023/12/14 01:38:35;;;;;;;6.38;1.75;;;10.70;99.90;;;;;;7381214;19;20074;-75
2023/12/14 01:41:04;;;;;;;4.38;1.40;;;10.60;99.90;;;;;;7380705;19;20023;-75
2023/12/14 01:43:32;;;;;;;7.90;1.33;;;10.80;99.90;;;;;;7380384;19;20009;-75
2023/12/14 01:46:01;;;;;;;6.18;1.60;;;10.70;99.90;;;;;;7379214;19;20074;-74
2023/12/14 01:48:29;;;;;;;4.15;1.50;;;10.60;99.90;;;;;;7401563;19;20066;-74
2023/12/14 01:51:01;;;;;;;5.55;1.50;;;10.80;99.90;;;;;;7378825;19;20010;-75
2023/12/14 01:53:29;;;;;;;6.32;1.27;;;10.90;99.90;;;;;;7380374;19;20020;-74
2023/12/14 01:55:58;;;;;;;6.03;1.20;;;10.70;99.90;;;;;;7380489;19;20003;-74
2023/12/14 01:58:27;;;;;;;2.20;1.27;;;10.70;99.90;;;;;;7379568;19;20284;-73
2023/12/14 02:01:05;;;;;;;7.10;1.92;;;10.40;99.90;;;;;;7384634;19;20011;-75
2023/12/14 02:03:33;;;;;;;5.25;1.10;;;10.40;99.90;;;;;;7401679;19;20015;-74
2023/12/14 02:06:05;;;;;;;8.70;1.05;;;10.40;99.90;;;;;;7379852;19;20370;-75
2023/12/14 02:08:33;;;;;;;5.82;1.17;;;10.50;99.90;;;;;;7385070;19;20007;-75
2023/12/14 02:11:02;;;;;;;7.75;1.63;;;10.50;99.90;;;;;;7385944;19;20074;-75
2023/12/14 02:13:31;;;;;;;2.30;1.00;;;10.60;99.90;;;;;;7384551;19;20659;-75
2023/12/14 02:15:59;;;;;;;3.92;1.15;;;10.40;99.90;;;;;;7385065;19;20017;-75
2023/12/14 02:18:28;;;;;;;2.83;1.15;;;10.30;99.90;;;;;;7403414;19;20007;-75
2023/12/14 02:20:54;;;;;;;5.55;1.20;;;10.50;99.90;;;;;;7378650;19;20006;-75
2023/12/14 02:23:26;;;;;;;9.40;1.40;;;10.20;99.90;;;;;;7378509;19;20454;-74
2023/12/14 02:25:54;;;;;;;;;;;10.20;99.90;;;;;;7379705;19;20063;-74
2023/12/14 02:28:23;;;;;;;2.00;1.08;;;10.40;99.90;;;;;;7380143;19;19973;-74
2023/12/14 02:30:51;;;;;;;2.13;1.05;;;10.40;99.90;;;;;;7406258;19;20070;-74
2023/12/14 02:33:21;;;;;;;1.60;1.30;;;10.60;99.90;;;;;;7385923;19;20007;-75
2023/12/14 02:35:50;;;;;;;2.67;1.40;;;10.50;99.90;;;;;;7385969;19;20246;-75
2023/12/14 02:38:19;;;;;;;2.45;1.17;;;10.70;99.90;;;;;;7385571;19;20024;-75
2023/12/14 02:40:50;;;;;;;5.18;1.10;;;10.70;99.90;;;;;;7386244;19;20078;-75
2023/12/14 02:43:20;;;;;;;2.80;1.13;;;10.70;99.90;;;;;;7386429;19;20102;-75
2023/12/14 02:45:49;;;;;;;4.03;1.02;;;10.60;99.90;;;;;;7413773;19;19998;-74
2023/12/14 02:48:18;;;;;;;3.05;1.10;;;10.60;99.90;;;;;;7385178;19;20019;-75
2023/12/14 02:50:46;;;;;;;2.05;1.10;;;10.70;99.90;;;;;;7384173;19;20304;-74
2023/12/14 02:53:15;;;;;;;4.53;0.93;;;10.60;99.90;;;;;;7386316;19;20062;-74
2023/12/14 02:55:44;;;;;;;2.78;0.75;;;10.60;99.90;;;;;;7385308;19;20336;-74
2023/12/14 02:58:15;;;;;;;6.30;0.98;;;10.70;99.90;;;;;;7385591;19;20054;-74
2023/12/14 03:00:44;;;;;;;5.53;0.90;;;10.60;99.90;;;;;;7407509;19;20019;-74
2023/12/14 03:03:12;;;;;;;3.03;0.95;;;10.80;99.90;;;;;;7388358;19;20441;-75
2023/12/14 03:05:41;;;;;;;3.63;1.08;;;10.80;99.90;;;;;;7385286;19;20027;-75
2023/12/14 03:08:10;;;;;;;2.78;1.10;;;10.90;99.90;;;;;;7384626;19;20023;-74
2023/12/14 03:10:43;;;;;;;2.15;0.85;;;10.70;99.90;;;;;;7385664;19;20086;-74
2023/12/14 03:13:15;;;;;;;2.22;1.00;;;10.60;99.90;;;;;;7386715;19;20066;-74
2023/12/14 03:15:45;;;;;;;;;;;10.70;99.90;;;;;;7407237;19;20485;-74
2023/12/14 03:18:16;;;;;;;1.52;1.05;;;11.00;99.90;;;;;;7385468;19;19967;-74
2023/12/14 03:20:44;;;;;;;;;;;10.50;99.90;;;;;;7386801;19;20006;-74
2023/12/14 03:23:13;;;;;;;2.53;1.13;;;10.60;99.90;;;;;;7385266;19;19940;-75
2023/12/14 03:25:42;;;;;;;1.42;0.68;;;10.70;99.90;;;;;;7384578;19;20007;-75
2023/12/14 03:28:11;;;;;;;1.17;0.65;;;10.70;99.90;;;;;;7382697;19;20391;-74
2023/12/14 03:30:42;;;;;;;2.25;0.85;;;10.70;99.90;;;;;;7406340;19;20015;-76
2023/12/14 03:33:10;;;;;;;4.18;1.10;;;10.90;99.90;;;;;;7383968;19;20114;-74
2023/12/14 03:35:41;;;;;;;2.40;0.95;;;10.80;99.90;;;;;;7385021;19;20011;-74
2023/12/14 03:38:10;;;;;;;1.27;0.85;;;11.00;99.90;;;;;;7384332;19;20038;-74
2023/12/14 03:40:39;;;;;;;2.97;1.15;;;11.00;99.90;;;;;;7383710;19;20623;-74
2023/12/14 03:43:08;;;;;;;2.30;0.93;;;11.00;99.90;;;;;;7384168;19;20002;-75
2023/12/14 03:45:36;;;;;;;3.70;0.90;;;10.80;99.90;;;;;;7405805;19;20011;-75
2023/12/14 03:48:08;;;;;;;4.53;1.20;;;11.00;99.90;;;;;;7381639;19;20002;-75
2023/12/14 03:50:36;;;;;;;;;;;10.70;99.90;;;;;;7383519;19;20354;-74
2023/12/14 03:53:05;;;;;;;5.05;1.17;;;10.80;99.90;;;;;;7384746;19;20152;-75
2023/12/14 03:55:33;;;;;;;1.40;0.98;;;10.70;99.90;;;;;;7383839;19;20019;-74
2023/12/14 03:58:02;;;;;;;2.85;1.30;;;10.60;99.90;;;;;;7384001;19;20010;-74
2023/12/14 04:00:33;;;;;;;2.90;1.20;;;10.60;99.90;;;;;;7404696;19;20003;-74
2023/12/14 04:03:03;;;;;;;1.98;1.00;;;10.70;99.90;;;;;;7382825;19;20018;-74
2023/12/14 04:05:35;;;;;;;1.63;0.90;;;10.80;99.90;;;;;;7383492;19;20010;-74
2023/12/14 04:08:03;;;;;;;1.73;1.02;;;10.60;99.90;;;;;;7382283;19;20019;-74
2023/12/14 04:10:32;;;;;;;3.20;1.60;;;10.70;99.90;;;;;;7391510;19;20049;-74
2023/12/14 04:13:01;;;;;;;3.22;1.20;;;10.70;99.90;;;;;;7390331;19;20137;-75
2023/12/14 04:15:29;;;;;;;3.03;1.60;;;10.80;99.90;;;;;;7410140;19;20035;-75
2023/12/14 04:17:58;;;;;;;3.15;1.50;;;10.80;99.90;;;;;;7392446;19;20014;-74
2023/12/14 04:20:26;;;;;;;5.82;1.88;;;10.80;99.90;;;;;;7388963;19;20007;-74
2023/12/14 04:22:58;;;;;;;5.00;2.00;;;10.80;99.90;;;;;;7382716;19;20006;-75
2023/12/14 04:25:26;;;;;;;9.43;2.55;;;10.80;99.90;;;;;;7383024;19;20284;-76
2023/12/14 04:27:55;;;;;;;4.05;2.13;;;10.90;99.90;;;;;;7405563;19;20086;-74
2023/12/14 04:30:24;;;;;;;6.43;2.15;;;10.80;99.90;;;;;;7382196;19;20003;-73
2023/12/14 04:32:53;;;;;;;7.40;2.90;;;10.70;99.90;;;;;;7382377;19;20003;-74
2023/12/14 04:35:22;;;;;;;8.20;2.90;;;10.80;99.90;;;;;;7382254;19;20055;-74
2023/12/14 04:37:51;;;;;;;9.43;2.58;;;10.70;99.90;;;;;;7381940;19;20024;-74
2023/12/14 04:40:22;;;;;;;8.80;3.25;;;10.70;99.90;;;;;;7383214;19;20087;-74
2023/12/14 04:42:50;;;;;;;;;;;10.70;99.90;;;;;;7404218;19;20027;-74
2023/12/14 04:45:19;;;;;;;8.80;3.17;;;10.60;99.90;;;;;;7385019;19;19948;-74
2023/12/14 04:47:48;;;;;;;13.75;3.13;;;10.60;99.90;;;;;;7380773;19;20387;-75
2023/12/14 04:50:16;;;;;;;7.32;2.97;;;10.60;99.90;;;;;;7381651;19;20019;-75
2023/12/14 04:52:47;;;;;;;14.85;3.15;;;10.50;99.90;;;;;;7380885;19;20066;-75
2023/12/14 04:55:16;;;;;;;8.93;2.85;;;10.70;99.90;;;;;;7382475;19;20020;-74
2023/12/14 04:57:48;;;;;;;9.73;3.53;;;10.80;99.90;;;;;;7401802;19;20069;-75
2023/12/14 05:00:18;;;;;;;10.00;2.92;;;10.90;99.90;;;;;;7381201;19;20011;-74
2023/12/14 05:02:50;;;;;;;6.88;3.50;;;10.80;99.90;;;;;;7382612;19;20070;-75
2023/12/14 05:05:19;;;;;;;22.92;3.33;;;10.80;99.90;;;;;;7382559;19;20017;-75
2023/12/14 05:07:48;;;;;;;23.55;3.22;;;10.40;99.90;;;;;;7381383;19;20002;-74
2023/12/14 05:10:17;;;;;;;7.40;3.08;;;10.60;99.90;;;;;;7381789;19;20014;-74
2023/12/14 05:12:48;;;;;;;10.73;3.72;;;10.60;99.90;;;;;;7402502;19;20422;-74
2023/12/14 05:15:17;;;;;;;18.83;3.90;;;10.60;99.90;;;;;;7380846;19;20058;-74
2023/12/14 05:17:49;;;;;;;8.52;3.15;;;10.40;99.90;;;;;;7381433;19;20003;-75
2023/12/14 05:20:19;;;;;;;10.77;3.30;;;10.60;99.90;;;;;;7380450;19;20027;-75
2023/12/14 05:22:50;;;;;;;16.38;3.50;;;10.80;99.90;;;;;;7381454;19;20014;-74
2023/12/14 05:25:18;;;;;;;9.68;3.05;;;10.50;99.90;;;;;;7379561;19;20032;-75
2023/12/14 05:27:50;;;;;;;16.50;4.20;;;10.50;99.90;;;;;;7401478;19;20023;-75
2023/12/14 05:30:19;;;;;;;15.35;3.35;;;10.60;99.90;;;;;;7380283;19;20086;-75
2023/12/14 05:32:47;;;;;;;8.77;3.97;;;10.60;99.90;;;;;;7380133;19;20410;-74
2023/12/14 05:35:16;;;;;;;15.38;3.72;;;10.40;99.90;;;;;;7382033;19;20311;-74
2023/12/14 05:37:45;;;;;;;24.05;4.10;;;10.40;99.90;;;;;;7380732;19;20294;-74
2023/12/14 05:40:14;;;;;;;14.82;3.80;;;10.30;99.90;;;;;;7380790;19;20062;-73
2023/12/14 05:42:43;;;;;;;16.55;3.63;;;10.50;99.90;;;;;;7402005;19;20015;-74
2023/12/14 05:45:14;;;;;;;12.25;3.88;;;10.40;99.90;;;;;;7380095;19;20003;-74
2023/12/14 05:47:44;;;;;;;14.70;3.58;;;10.80;99.90;;;;;;7382603;19;20010;-74
2023/12/14 05:50:14;;;;;;;10.20;3.38;;;10.70;99.90;;;;;;7379948;19;20059;-75
2023/12/14 05:52:45;;;;;;;10.55;3.63;;;10.80;99.90;;;;;;7381750;19;20003;-74
2023/12/14 05:55:14;;;;;;;16.27;3.42;;;10.70;99.90;;;;;;7379981;19;20010;-75
2023/12/14 05:57:43;;;;;;;17.30;3.60;;;10.60;99.90;;;;;;7401694;19;20007;-75
2023/12/14 06:00:15;;;;;;;8.20;3.22;;;10.80;99.90;;;;;;7379821;19;20015;-75
2023/12/14 06:02:45;;;;;;;16.70;3.80;;;11.00;99.90;;;;;;7379428;19;20010;-74
2023/12/14 06:05:14;;;;;;;11.45;3.67;;;11.00;99.90;;;;;;7383564;19;20006;-74
2023/12/14 06:07:43;;;;;;;20.67;3.88;;;11.10;99.90;;;;;;7387867;19;20062;-75
2023/12/14 06:10:15;;;;;;;10.48;3.15;;;11.10;99.90;;;;;;7387826;19;20062;-75
2023/12/14 06:12:45;;;;;;;16.35;3.53;;;11.00;99.90;;;;;;7409526;19;20007;-74
2023/12/14 06:15:16;;;;;;;11.75;3.70;;;10.90;99.90;;;;;;7392360;19;20043;-75
2023/12/14 06:17:45;;;;;;;15.07;3.13;;;11.00;99.90;;;;;;7393936;19;20006;-75
2023/12/14 06:20:14;;;;;;;12.02;3.20;;;10.90;99.90;;;;;;7394341;19;20006;-75
2023/12/14 06:22:43;;;;;;;20.27;4.22;;;10.90;99.90;;;;;;7393638;19;20006;-77
2023/12/14 06:25:11;;;;;;;24.20;3.38;;;10.80;99.90;;;;;;7387203;19;20078;-75
2023/12/14 06:27:44;;;;;;;13.80;4.00;;;10.70;99.90;;;;;;7412554;19;20046;-75
2023/12/14 06:30:16;;;;;;;8.77;3.42;;;10.70;99.90;;;;;;7386531;19;20288;-75
2023/12/14 06:32:45;;;;;;;9.98;3.53;;;10.60;99.90;;;;;;7387065;19;20024;-75
2023/12/14 06:35:17;;;;;;;8.40;3.22;;;10.60;99.90;;;;;;7387462;19;20006;-75
2023/12/14 06:37:48;;;;;;;14.02;3.13;;;10.70;99.90;;;;;;7386718;19;20417;-74
2023/12/14 06:40:17;;;;;;;4.60;3.15;;;10.50;99.90;;;;;;7386570;19;20102;-75
2023/12/14 06:42:46;;;;;;;14.18;3.35;;;10.60;99.90;;;;;;7409742;19;20020;-75
2023/12/14 06:45:17;;;;;;;12.82;2.55;;;10.60;99.90;;;;;;7389055;19;20002;-74
2023/12/14 06:47:47;;;;;;;10.52;2.30;;;10.70;99.90;;;;;;7389016;19;20010;-76
2023/12/14 06:50:16;;;;;;;12.00;3.15;;;10.80;99.90;;;;;;7386895;19;20280;-74
2023/12/14 06:52:44;;;;;;;11.70;3.03;;;10.90;99.90;;;;;;7388138;19;20014;-74
2023/12/14 06:55:14;;;;;;;8.68;2.40;;;10.60;99.90;;;;;;7385992;19;20027;-73
2023/12/14 06:57:46;;;;;;;6.97;2.53;;;10.50;99.90;;;;;;7409451;19;20031;-74
2023/12/14 07:00:18;;;;;;;9.32;3.13;;;10.60;99.90;;;;;;7387331;19;20238;-75
2023/12/14 07:02:47;;;;;;;5.65;1.98;;;10.50;99.90;;;;;;7385032;19;20095;-75
2023/12/14 07:05:17;;;;;;;8.75;2.30;;;10.40;99.90;;;;;;7385571;19;20401;-74
2023/12/14 07:07:46;;;;;;;9.15;2.20;;;10.50;99.90;;;;;;7385323;19;20083;-73
2023/12/14 07:10:15;;;;;;;12.98;2.38;;;10.60;99.90;;;;;;7385288;19;20062;-75
2023/12/14 07:12:43;;;;;;;7.03;2.65;;;10.50;99.90;;;;;;7406928;19;20015;-74
2023/12/14 07:15:12;;;;;;;7.97;2.20;;;10.50;99.90;;;;;;7383598;19;20027;-75
2023/12/14 07:17:44;;;;;;;7.63;2.38;;;10.60;99.90;;;;;;7386600;19;20011;-75
2023/12/14 07:20:13;;;;;;;;;;;10.70;99.90;;;;;;7387620;19;20003;-75
2023/12/14 07:22:42;;;;;;;5.78;2.15;;;10.80;99.90;;;;;;7384771;19;19906;-75
2023/12/14 07:25:11;;;;;;;3.60;2.22;;;10.90;99.90;;;;;;7384657;19;20010;-75
2023/12/14 07:27:39;;;;;;;14.93;2.58;;;10.80;99.90;;;;;;7405645;19;20027;-75
2023/12/14 07:30:10;;;;;;;13.45;2.70;;;10.70;99.90;;;;;;7383884;19;20306;-75
2023/12/14 07:32:39;;;;;;;7.25;2.80;;;10.60;99.90;;;;;;7384766;19;20026;-75
2023/12/14 07:35:13;;;;;;;5.50;2.40;;;10.60;99.90;;;;;;7385865;19;20006;-75
2023/12/14 07:37:42;;;;;;;8.32;2.60;;;10.60;99.90;;;;;;7384316;19;20329;-74
2023/12/14 07:40:11;;;;;;;11.77;2.60;;;10.70;99.90;;;;;;7384830;19;20023;-76
2023/12/14 07:42:40;;;;;;;7.28;2.30;;;10.70;99.90;;;;;;7405600;19;20450;-75
2023/12/14 07:45:10;;;;;;;4.60;2.25;;;10.70;99.90;;;;;;7383781;19;20006;-75
2023/12/14 07:47:39;;;;;;;5.22;2.25;;;10.90;99.90;;;;;;7384207;19;20404;-76
2023/12/14 07:50:12;;;;;;;7.10;2.15;;;11.00;99.90;;;;;;7382976;19;20011;-76
2023/12/14 07:52:40;;;;;;;12.02;2.90;;;10.90;99.90;;;;;;7387634;19;20010;-76
2023/12/14 07:55:13;;;;;;;6.38;2.25;;;11.00;99.90;;;;;;7384768;19;20018;-77
2023/12/14 07:57:44;;;;;;;112.78;6.70;;;11.20;99.90;;;;;;7406556;19;20078;-77
2023/12/14 08:00:14;;;;;;;147.85;7.95;;;10.70;99.90;;;;;;7383780;19;20038;-74
2023/12/14 08:02:43;;;;;;;65.78;5.03;;;10.60;99.90;;;;;;7384408;19;20023;-77
2023/12/14 08:05:14;;;;;;;11.38;2.47;;;10.50;99.90;;;;;;7383530;19;20070;-76
2023/12/14 08:07:43;;;;;;;7.20;3.08;;;10.70;99.90;;;;;;7384770;19;20007;-76
2023/12/14 08:10:12;;;;;;;13.73;2.78;;;10.80;99.90;;;;;;7383960;19;20019;-77
2023/12/14 08:12:51;;;;;;;13.95;2.85;;;11.00;99.90;;;;;;7405943;19;20024;-78
2023/12/14 08:15:20;;;;;;;17.50;3.88;;;10.80;99.90;;;;;;7387292;19;20007;-78
2023/12/14 08:17:48;;;;;;;9.75;3.30;;;10.70;99.90;;;;;;7396125;19;20007;-77
2023/12/14 08:20:19;;;;;;;11.18;3.45;;;10.90;99.90;;;;;;7391889;19;20006;-77
2023/12/14 08:22:48;;;;;;;13.27;2.88;;;10.70;99.90;;;;;;7388933;19;20011;-76
2023/12/14 08:25:17;;;;;;;13.65;3.65;;;10.40;99.90;;;;;;7388308;19;20039;-74
2023/12/14 08:27:46;;;;;;;9.75;2.95;;;10.40;99.90;;;;;;7403839;19;20062;-75
2023/12/14 08:30:16;;;;;;;12.63;3.00;;;10.50;99.90;;;;;;7382116;19;20023;-75
2023/12/14 08:32:45;;;;;;;7.03;3.00;;;10.40;99.90;;;;;;7382179;19;20027;-75
2023/12/14 08:35:14;;;;;;;15.40;3.75;;;10.60;99.90;;;;;;7382830;19;20007;-78
2023/12/14 08:37:46;;;;;;;13.95;3.50;;;10.50;99.90;;;;;;7383921;19;20020;-77
2023/12/14 08:40:16;;;;;;;12.25;3.75;;;10.50;99.90;;;;;;7383121;19;20003;-78
2023/12/14 08:42:45;;;;;;;21.20;3.75;;;10.60;99.90;;;;;;7408374;19;20027;-77
2023/12/14 08:45:17;;;;;;;8.82;3.58;;;10.40;99.90;;;;;;7385360;19;20038;-78
2023/12/14 08:47:45;;;;;;;19.60;3.50;;;10.30;99.90;;;;;;7386198;19;20023;-78
2023/12/14 08:50:15;;;;;;;11.73;3.13;;;10.40;99.90;;;;;;7384077;19;20469;-77
2023/12/14 08:52:50;;;;;;;15.02;3.55;;;10.40;99.90;;;;;;7386427;19;20019;-77
2023/12/14 08:55:21;;;;;;;12.75;3.38;;;10.70;99.90;;;;;;7384680;19;20010;-77
2023/12/14 08:57:50;;;;;;;10.32;3.65;;;10.70;99.90;;;;;;7404939;19;20345;-74
2023/12/14 09:00:20;;;;;;;11.02;3.38;;;10.80;99.90;;;;;;7385320;19;20030;-76
2023/12/14 09:02:49;;;;;;;13.38;3.05;;;10.90;99.90;;;;;;7381781;19;20014;-74
2023/12/14 09:05:19;;;;;;;6.32;3.13;;;10.90;99.90;;;;;;7381870;19;20014;-74
2023/12/14 09:07:54;;;;;;;9.93;3.00;;;10.80;99.90;;;;;;7382906;19;19998;-78
2023/12/14 09:10:23;;;;;;;9.35;2.85;;;10.70;99.90;;;;;;7380552;19;20268;-76
2023/12/14 09:12:52;;;;;;;11.85;2.50;;;10.90;99.90;;;;;;7403825;19;20066;-77
2023/12/14 09:15:21;;;;;;;10.38;2.85;;;10.90;99.90;;;;;;7383477;19;20010;-78
2023/12/14 09:17:49;;;;;;;13.15;3.03;;;11.00;99.90;;;;;;7382730;19;20018;-77
2023/12/14 09:20:19;;;;;;;10.73;2.92;;;11.20;99.90;;;;;;7380607;19;20015;-76
2023/12/14 09:22:51;;;;;;;7.45;2.50;;;11.30;99.90;;;;;;7381998;19;20366;-77
2023/12/14 09:25:20;;;;;;;6.63;2.75;;;11.00;99.90;;;;;;7381831;19;20024;-76
2023/12/14 09:27:48;;;;;;;9.32;2.92;;;11.00;99.90;;;;;;7403666;19;20014;-76
2023/12/14 09:30:20;;;;;;;9.43;2.45;;;11.10;99.90;;;;;;7378896;19;20003;-77
2023/12/14 09:32:49;;;;;;;11.88;2.97;;;11.30;99.90;;;;;;7381510;19;20006;-75
2023/12/14 09:35:18;;;;;;;5.13;2.22;;;11.00;99.90;;;;;;7380838;19;20011;-77
2023/12/14 09:37:46;;;;;;;7.75;2.70;;;11.20;99.90;;;;;;7381492;19;20006;-76
2023/12/14 09:40:19;;;;;;;11.00;2.50;;;11.30;99.90;;;;;;7379568;19;20010;-75
2023/12/14 09:42:48;;;;;;;7.57;2.80;;;11.40;99.90;;;;;;7401448;19;20397;-76
2023/12/14 09:45:19;;;;;;;11.02;2.83;;;11.20;99.90;;;;;;7381239;19;20346;-79
2023/12/14 09:47:50;;;;;;;9.30;2.53;;;11.20;99.90;;;;;;7384621;19;20030;-79
2023/12/14 09:50:19;;;;;;;9.65;2.28;;;11.10;99.90;;;;;;7383037;19;20007;-76
2023/12/14 09:52:48;;;;;;;12.30;2.70;;;11.10;99.90;;;;;;7380741;19;20003;-75
2023/12/14 09:55:20;;;;;;;14.18;2.83;;;11.10;99.90;;;;;;7380740;19;20014;-75
2023/12/14 09:57:48;;;;;;;;;;;11.30;99.90;;;;;;7402815;19;20014;-74
2023/12/14 10:00:35;;;;;;;8.68;2.30;;;11.10;99.90;;;;;;7379177;19;19915;-77
2023/12/14 10:03:28;;;;;;;7.40;2.42;;;10.90;99.90;;;;;;7379541;19;20370;-77
2023/12/14 10:05:58;;;;;;;5.22;2.13;;;10.80;99.90;;;;;;7379643;19;20031;-75
2023/12/14 10:08:28;;;;;;;6.45;2.50;;;10.70;99.90;;;;;;7381255;19;20052;-77
2023/12/14 10:11:00;;;;;;;9.82;3.00;;;10.70;99.90;;;;;;7380244;19;20098;-77
2023/12/14 10:13:40;;;;;;;8.98;2.30;;;10.90;99.90;;;;;;7380115;19;19998;-77
2023/12/14 10:16:09;;;;;;;10.60;2.63;;;10.80;99.90;;;;;;7381280;19;20002;-76
2023/12/14 10:18:38;;;;;;;7.75;2.75;;;10.90;99.90;;;;;;7400931;19;20058;-76
2023/12/14 10:21:09;;;;;;;7.78;2.40;;;11.00;99.90;;;;;;7382738;19;20019;-73
2023/12/14 10:23:39;;;;;;;4.50;2.53;;;11.10;99.90;;;;;;7380126;19;20013;-74
2023/12/14 10:26:11;;;;;;;16.73;2.67;;;11.30;99.90;;;;;;7382075;19;20013;-74
2023/12/14 10:28:42;;;;;;;7.25;2.70;;;11.20;99.90;;;;;;7383295;19;20239;-74
2023/12/14 10:31:12;;;;;;;12.65;2.50;;;11.40;99.90;;;;;;7383850;19;20006;-73
2023/12/14 10:33:41;;;;;;;8.05;2.53;;;11.30;99.90;;;;;;7405910;19;20009;-76
2023/12/14 10:36:11;;;;;;;8.77;2.80;;;11.40;99.90;;;;;;7384948;19;19999;-77
2023/12/14 10:38:40;;;;;;;4.25;2.65;;;11.50;99.90;;;;;;7379916;19;20023;-75
2023/12/14 10:44:23;;;;;;;9.35;2.60;;;11.60;99.90;;;;;;7380723;19;20010;-78
2023/12/14 10:46:52;;;;;;;5.90;2.35;;;11.50;99.90;;;;;;7375906;19;20003;-75
2023/12/14 10:49:21;;;;;;;12.82;2.70;;;11.60;99.90;;;;;;7376206;19;20011;-75
2023/12/14 10:51:50;;;;;;;7.50;2.30;;;11.60;99.90;;;;;;7401042;19;20024;-75
2023/12/14 10:54:21;;;;;;;10.32;2.85;;;11.50;99.90;;;;;;7384218;19;20292;-74
2023/12/14 10:56:49;;;;;;;5.57;2.15;;;11.80;99.90;;;;;;7386916;19;20304;-74
2023/12/14 10:59:19;;;;;;;11.48;2.05;;;11.60;99.90;;;;;;7384298;19;20074;-74
2023/12/14 11:01:54;;;;;;;9.13;1.83;;;11.60;99.90;;;;;;7383476;19;20009;-74
2023/12/14 11:04:24;;;;;;;5.65;2.00;;;11.50;99.90;;;;;;7383727;19;20016;-76
2023/12/14 11:06:56;;;;;;;4.25;2.22;;;11.40;99.90;;;;;;7404440;19;20010;-75
2023/12/14 11:09:27;;;;;;;6.18;1.95;;;11.60;99.90;;;;;;7381861;19;20074;-75
2023/12/14 11:11:59;;;;;;;10.88;2.28;;;11.70;99.90;;;;;;7383978;19;20031;-75
2023/12/14 11:14:29;;;;;;;6.38;2.20;;;11.70;99.90;;;;;;7383435;19;20066;-75
2023/12/14 11:17:09;;;;;;;6.00;2.50;;;11.70;99.90;;;;;;7382512;19;20075;-75
2023/12/14 11:19:39;;;;;;;4.57;2.38;;;11.40;99.90;;;;;;7383077;19;20010;-75
2023/12/14 11:22:27;;;;;;;9.13;2.50;;;11.60;99.90;;;;;;7384779;19;20020;-75
2023/12/14 11:24:57;;;;;;;10.52;2.78;;;11.50;99.90;;;;;;7404382;19;20026;-75
2023/12/14 11:27:31;;;;;;;7.82;2.80;;;11.40;99.90;;;;;;7386178;19;20016;-75
2023/12/14 11:30:01;;;;;;;5.82;2.45;;;11.20;99.90;;;;;;7382596;19;20019;-75
2023/12/14 11:32:33;;;;;;;14.00;3.10;;;11.10;99.90;;;;;;7385987;19;20073;-77
2023/12/14 11:35:02;;;;;;;11.50;2.95;;;11.20;99.90;;;;;;7384184;19;20006;-75
2023/12/14 11:37:33;;;;;;;10.52;2.67;;;11.40;99.90;;;;;;7385900;19;20011;-74
2023/12/14 11:40:04;;;;;;;7.35;2.50;;;11.50;99.90;;;;;;7409695;19;20030;-75
2023/12/14 11:42:36;;;;;;;6.03;2.38;;;11.60;99.90;;;;;;7376519;19;20010;-77
2023/12/14 11:45:05;;;;;;;8.60;2.05;;;11.80;99.90;;;;;;7385127;19;20020;-76
2023/12/14 11:47:36;;;;;;;15.77;3.40;;;11.90;99.90;;;;;;7385632;19;20070;-76
2023/12/14 11:50:05;;;;;;;;;;;11.80;99.90;;;;;;7383710;19;20322;-75
2023/12/14 11:52:34;;;;;;;7.38;2.60;;;11.60;99.90;;;;;;7383880;19;20126;-75
2023/12/14 11:55:03;;;;;;;10.23;2.47;;;11.60;99.90;;;;;;7404707;19;20070;-75
2023/12/14 11:57:34;;;;;;;6.75;2.08;;;11.60;99.90;;;;;;7331059;19;19998;-79
2023/12/14 12:00:03;;;;;;;;;;;11.50;99.90;;;;;;7414929;19;20358;-80
2023/12/14 12:02:32;;;;;;;8.80;2.22;;;11.10;99.90;;;;;;7386273;19;19911;-78
2023/12/14 12:05:04;;;;;;;8.45;2.22;;;11.20;99.90;;;;;;7385373;19;20256;-77
2023/12/14 12:07:35;;;;;;;6.88;2.15;;;11.10;99.90;;;;;;7385609;19;20359;-79
2023/12/14 12:10:03;;;;;;;6.68;2.42;;;11.00;99.90;;;;;;7404662;19;20027;-77
2023/12/14 12:12:38;;;;;;;6.13;2.30;;;11.20;99.90;;;;;;7384954;19;20003;-77
2023/12/14 12:15:08;;;;;;;10.05;2.20;;;11.30;99.90;;;;;;7386516;19;20011;-79
2023/12/14 12:17:45;;;;;;;4.03;2.35;;;11.40;99.90;;;;;;7393391;19;20003;-80
2023/12/14 12:20:18;;;;;;;10.80;3.25;;;11.40;99.90;;;;;;7390014;19;20031;-79
2023/12/14 12:22:47;;;;;;;6.03;2.53;;;11.40;99.90;;;;;;7390290;19;20082;-77
2023/12/14 12:25:16;;;;;;;8.40;2.47;;;11.40;99.90;;;;;;7404079;19;20066;-76
2023/12/14 12:27:44;;;;;;;8.80;2.60;;;11.40;99.90;;;;;;7382439;19;19999;-77
2023/12/14 12:30:14;;;;;;;12.60;2.75;;;11.40;99.90;;;;;;7381520;19;20007;-77
2023/12/14 12:32:51;;;;;;;9.95;2.60;;;11.50;99.90;;;;;;7383197;19;20380;-81
2023/12/14 12:35:23;;;;;;;7.25;2.17;;;11.50;99.90;;;;;;7397784;19;20007;-80
2023/12/14 12:37:53;;;;;;;9.55;2.35;;;11.30;99.90;;;;;;7404021;19;19991;-79
2023/12/14 12:40:26;;;;;;;4.30;1.92;;;11.30;99.90;;;;;;7426236;19;20017;-82
2023/12/14 12:42:57;;;;;;;9.45;2.28;;;11.20;99.90;;;;;;7396137;19;19999;-81
2023/12/14 12:45:27;;;;;;;10.93;2.17;;;11.30;99.90;;;;;;7387583;19;20084;-78
2023/12/14 12:47:56;;;;;;;7.20;2.53;;;11.30;99.90;;;;;;7382916;19;20022;-77
2023/12/14 12:50:27;;;;;;;10.35;2.35;;;11.00;99.90;;;;;;7381871;19;20234;-78
2023/12/14 12:52:56;;;;;;;10.25;2.50;;;11.00;99.90;;;;;;7383342;19;20303;-77
2023/12/14 12:55:24;;;;;;;8.57;2.50;;;10.90;99.90;;;;;;7402607;19;20078;-76
2023/12/14 13:03:46;;;;;;;12.68;2.03;;;10.90;99.90;;;;;;7413041;19;20414;-80
2023/12/14 13:06:22;;;;;;;7.35;2.15;;;11.10;99.90;;;;;;7394435;19;20031;-80
2023/12/14 13:08:50;;;;;;;4.18;1.73;;;11.10;99.90;;;;;;7387563;19;20015;-78